sensor_id;sensor_type;location;lat;lon;timestamp;P1;durP1;ratioP1;P2;durP2;ratioP2
15673;SDS011;7937;48.090;16.212;2024-03-07T00:00:25;29.50;;;18.70;;
15673;SDS011;7937;48.090;16.212;2024-03-07T00:03:28;26.17;;;18.33;;
15673;SDS011;7937;48.090;16.212;2024-03-07T00:06:30;26.83;;;19.03;;
15673;SDS011;7937;48.090;16.212;2024-03-07T00:09:32;30.93;;;18.97;;
15673;SDS011;7937;48.090;16.212;2024-03-07T00:12:36;25.67;;;17.93;;
15673;SDS011;7937;48.090;16.212;2024-03-07T00:15:43;28.57;;;20.03;;
15673;SDS011;7937;48.090;16.212;2024-03-07T00:18:45;25.47;;;18.70;;
15673;SDS011;7937;48.090;16.212;2024-03-07T00:21:47;28.87;;;20.33;;
15673;SDS011;7937;48.090;16.212;2024-03-07T00:24:50;31.83;;;19.93;;
15673;SDS011;7937;48.090;16.212;2024-03-07T00:27:52;29.80;;;19.80;;
15673;SDS011;7937;48.090;16.212;2024-03-07T00:30:55;28.77;;;19.97;;
15673;SDS011;7937;48.090;16.212;2024-03-07T00:33:58;27.30;;;19.13;;
15673;SDS011;7937;48.090;16.212;2024-03-07T00:37:14;29.87;;;19.30;;
15673;SDS011;7937;48.090;16.212;2024-03-07T00:40:17;30.80;;;20.70;;
15673;SDS011;7937;48.090;16.212;2024-03-07T00:43:19;29.67;;;20.63;;
15673;SDS011;7937;48.090;16.212;2024-03-07T00:46:21;29.20;;;20.37;;
15673;SDS011;7937;48.090;16.212;2024-03-07T00:49:24;32.73;;;22.20;;
15673;SDS011;7937;48.090;16.212;2024-03-07T00:52:26;31.30;;;20.67;;
15673;SDS011;7937;48.090;16.212;2024-03-07T00:55:31;30.23;;;22.07;;
15673;SDS011;7937;48.090;16.212;2024-03-07T00:58:35;34.33;;;22.57;;
15673;SDS011;7937;48.090;16.212;2024-03-07T01:01:38;30.40;;;20.90;;
15673;SDS011;7937;48.090;16.212;2024-03-07T01:04:45;38.23;;;21.83;;
15673;SDS011;7937;48.090;16.212;2024-03-07T01:07:47;32.63;;;22.30;;
15673;SDS011;7937;48.090;16.212;2024-03-07T01:10:49;33.73;;;21.90;;
15673;SDS011;7937;48.090;16.212;2024-03-07T01:13:52;31.20;;;22.33;;
15673;SDS011;7937;48.090;16.212;2024-03-07T01:16:55;32.87;;;21.70;;
15673;SDS011;7937;48.090;16.212;2024-03-07T01:19:59;30.47;;;21.43;;
15673;SDS011;7937;48.090;16.212;2024-03-07T01:23:04;30.97;;;21.57;;
15673;SDS011;7937;48.090;16.212;2024-03-07T01:26:07;34.30;;;22.73;;
15673;SDS011;7937;48.090;16.212;2024-03-07T01:29:10;31.57;;;22.67;;
15673;SDS011;7937;48.090;16.212;2024-03-07T01:32:13;29.73;;;21.23;;
15673;SDS011;7937;48.090;16.212;2024-03-07T01:35:15;30.20;;;21.60;;
15673;SDS011;7937;48.090;16.212;2024-03-07T01:38:17;33.67;;;23.13;;
15673;SDS011;7937;48.090;16.212;2024-03-07T01:41:20;34.73;;;22.80;;
15673;SDS011;7937;48.090;16.212;2024-03-07T01:44:22;34.07;;;24.00;;
15673;SDS011;7937;48.090;16.212;2024-03-07T01:47:24;32.90;;;23.07;;
15673;SDS011;7937;48.090;16.212;2024-03-07T01:50:27;35.40;;;25.63;;
15673;SDS011;7937;48.090;16.212;2024-03-07T01:53:30;36.33;;;24.27;;
15673;SDS011;7937;48.090;16.212;2024-03-07T01:56:32;32.00;;;24.43;;
15673;SDS011;7937;48.090;16.212;2024-03-07T01:59:35;36.23;;;24.47;;
15673;SDS011;7937;48.090;16.212;2024-03-07T02:02:38;33.17;;;23.43;;
15673;SDS011;7937;48.090;16.212;2024-03-07T02:05:44;36.00;;;24.03;;
15673;SDS011;7937;48.090;16.212;2024-03-07T02:08:47;32.20;;;22.93;;
15673;SDS011;7937;48.090;16.212;2024-03-07T02:11:49;33.00;;;23.17;;
15673;SDS011;7937;48.090;16.212;2024-03-07T02:14:52;36.40;;;23.40;;
15673;SDS011;7937;48.090;16.212;2024-03-07T02:17:54;33.00;;;23.47;;
15673;SDS011;7937;48.090;16.212;2024-03-07T02:20:57;31.67;;;23.20;;
15673;SDS011;7937;48.090;16.212;2024-03-07T02:24:03;35.60;;;23.93;;
15673;SDS011;7937;48.090;16.212;2024-03-07T02:27:26;35.03;;;23.40;;
15673;SDS011;7937;48.090;16.212;2024-03-07T02:31:15;31.83;;;23.30;;
15673;SDS011;7937;48.090;16.212;2024-03-07T02:34:24;30.33;;;21.33;;
15673;SDS011;7937;48.090;16.212;2024-03-07T02:37:52;31.77;;;22.43;;
15673;SDS011;7937;48.090;16.212;2024-03-07T02:40:55;29.30;;;21.23;;
15673;SDS011;7937;48.090;16.212;2024-03-07T02:43:58;30.47;;;21.80;;
15673;SDS011;7937;48.090;16.212;2024-03-07T02:47:00;33.30;;;22.83;;
15673;SDS011;7937;48.090;16.212;2024-03-07T02:50:05;30.77;;;21.87;;
15673;SDS011;7937;48.090;16.212;2024-03-07T02:53:08;30.70;;;21.17;;
15673;SDS011;7937;48.090;16.212;2024-03-07T02:56:10;30.97;;;22.50;;
15673;SDS011;7937;48.090;16.212;2024-03-07T02:59:13;30.87;;;21.63;;
15673;SDS011;7937;48.090;16.212;2024-03-07T03:02:15;35.23;;;21.90;;
15673;SDS011;7937;48.090;16.212;2024-03-07T03:05:17;28.43;;;20.60;;
15673;SDS011;7937;48.090;16.212;2024-03-07T03:08:21;32.90;;;21.27;;
15673;SDS011;7937;48.090;16.212;2024-03-07T03:11:24;28.23;;;20.00;;
15673;SDS011;7937;48.090;16.212;2024-03-07T03:14:27;28.73;;;20.17;;
15673;SDS011;7937;48.090;16.212;2024-03-07T03:17:29;29.23;;;19.80;;
15673;SDS011;7937;48.090;16.212;2024-03-07T03:20:32;32.27;;;19.90;;
15673;SDS011;7937;48.090;16.212;2024-03-07T03:23:41;26.87;;;19.43;;
15673;SDS011;7937;48.090;16.212;2024-03-07T03:26:43;29.27;;;19.53;;
15673;SDS011;7937;48.090;16.212;2024-03-07T03:29:45;27.17;;;19.53;;
15673;SDS011;7937;48.090;16.212;2024-03-07T03:32:49;30.70;;;19.67;;
15673;SDS011;7937;48.090;16.212;2024-03-07T03:35:51;28.00;;;19.90;;
15673;SDS011;7937;48.090;16.212;2024-03-07T03:38:54;24.73;;;17.77;;
15673;SDS011;7937;48.090;16.212;2024-03-07T03:41:56;26.93;;;18.23;;
15673;SDS011;7937;48.090;16.212;2024-03-07T03:44:58;24.57;;;16.80;;
15673;SDS011;7937;48.090;16.212;2024-03-07T03:48:01;25.30;;;17.27;;
15673;SDS011;7937;48.090;16.212;2024-03-07T03:51:06;24.40;;;16.37;;
15673;SDS011;7937;48.090;16.212;2024-03-07T03:54:09;22.33;;;16.10;;
15673;SDS011;7937;48.090;16.212;2024-03-07T03:57:12;24.07;;;16.30;;
15673;SDS011;7937;48.090;16.212;2024-03-07T04:00:14;23.10;;;15.97;;
15673;SDS011;7937;48.090;16.212;2024-03-07T04:03:16;25.70;;;15.90;;
15673;SDS011;7937;48.090;16.212;2024-03-07T04:06:18;24.17;;;15.30;;
15673;SDS011;7937;48.090;16.212;2024-03-07T04:09:20;21.77;;;14.27;;
15673;SDS011;7937;48.090;16.212;2024-03-07T04:12:22;22.03;;;14.30;;
15673;SDS011;7937;48.090;16.212;2024-03-07T04:15:25;20.60;;;13.47;;
15673;SDS011;7937;48.090;16.212;2024-03-07T04:18:36;20.93;;;14.03;;
15673;SDS011;7937;48.090;16.212;2024-03-07T04:21:38;19.43;;;13.17;;
15673;SDS011;7937;48.090;16.212;2024-03-07T04:24:41;20.13;;;13.30;;
15673;SDS011;7937;48.090;16.212;2024-03-07T04:27:44;19.97;;;13.10;;
15673;SDS011;7937;48.090;16.212;2024-03-07T04:30:46;20.13;;;13.57;;
15673;SDS011;7937;48.090;16.212;2024-03-07T04:33:51;17.93;;;12.27;;
15673;SDS011;7937;48.090;16.212;2024-03-07T04:36:53;17.00;;;11.93;;
15673;SDS011;7937;48.090;16.212;2024-03-07T04:39:55;19.23;;;13.00;;
15673;SDS011;7937;48.090;16.212;2024-03-07T04:42:57;18.30;;;12.17;;
15673;SDS011;7937;48.090;16.212;2024-03-07T04:46:00;18.70;;;12.47;;
15673;SDS011;7937;48.090;16.212;2024-03-07T04:49:02;18.30;;;12.83;;
15673;SDS011;7937;48.090;16.212;2024-03-07T04:52:04;18.53;;;11.33;;
15673;SDS011;7937;48.090;16.212;2024-03-07T04:55:07;18.73;;;12.77;;
15673;SDS011;7937;48.090;16.212;2024-03-07T04:58:12;16.77;;;11.33;;
15673;SDS011;7937;48.090;16.212;2024-03-07T05:01:14;18.33;;;12.73;;
15673;SDS011;7937;48.090;16.212;2024-03-07T05:04:16;17.17;;;11.93;;
15673;SDS011;7937;48.090;16.212;2024-03-07T05:07:20;17.30;;;11.83;;
15673;SDS011;7937;48.090;16.212;2024-03-07T05:10:22;17.73;;;12.13;;
15673;SDS011;7937;48.090;16.212;2024-03-07T05:13:24;17.30;;;12.70;;
15673;SDS011;7937;48.090;16.212;2024-03-07T05:16:29;19.53;;;13.00;;
15673;SDS011;7937;48.090;16.212;2024-03-07T05:19:35;21.03;;;13.40;;
15673;SDS011;7937;48.090;16.212;2024-03-07T05:22:38;19.50;;;13.70;;
15673;SDS011;7937;48.090;16.212;2024-03-07T05:25:42;19.93;;;13.77;;
15673;SDS011;7937;48.090;16.212;2024-03-07T05:28:47;20.37;;;14.67;;
15673;SDS011;7937;48.090;16.212;2024-03-07T05:31:49;24.23;;;15.30;;
15673;SDS011;7937;48.090;16.212;2024-03-07T05:34:52;23.80;;;15.43;;
15673;SDS011;7937;48.090;16.212;2024-03-07T05:37:57;22.67;;;16.17;;
15673;SDS011;7937;48.090;16.212;2024-03-07T05:41:01;27.83;;;17.40;;
15673;SDS011;7937;48.090;16.212;2024-03-07T05:44:04;24.00;;;16.30;;
15673;SDS011;7937;48.090;16.212;2024-03-07T05:47:10;22.90;;;15.57;;
15673;SDS011;7937;48.090;16.212;2024-03-07T05:50:15;23.23;;;15.23;;
15673;SDS011;7937;48.090;16.212;2024-03-07T05:53:18;24.37;;;15.67;;
15673;SDS011;7937;48.090;16.212;2024-03-07T05:56:20;22.30;;;15.20;;
15673;SDS011;7937;48.090;16.212;2024-03-07T05:59:23;25.77;;;16.23;;
15673;SDS011;7937;48.090;16.212;2024-03-07T06:02:25;22.40;;;15.23;;
15673;SDS011;7937;48.090;16.212;2024-03-07T06:05:27;21.30;;;14.97;;
15673;SDS011;7937;48.090;16.212;2024-03-07T06:08:30;19.30;;;14.43;;
15673;SDS011;7937;48.090;16.212;2024-03-07T06:11:33;21.13;;;15.20;;
15673;SDS011;7937;48.090;16.212;2024-03-07T06:14:36;22.83;;;14.70;;
15673;SDS011;7937;48.090;16.212;2024-03-07T06:17:38;19.60;;;14.13;;
15673;SDS011;7937;48.090;16.212;2024-03-07T06:20:41;18.73;;;13.83;;
15673;SDS011;7937;48.090;16.212;2024-03-07T06:23:44;21.47;;;15.20;;
15673;SDS011;7937;48.090;16.212;2024-03-07T06:26:46;18.63;;;13.27;;
15673;SDS011;7937;48.090;16.212;2024-03-07T06:29:50;21.20;;;14.83;;
15673;SDS011;7937;48.090;16.212;2024-03-07T06:32:54;18.50;;;12.87;;
15673;SDS011;7937;48.090;16.212;2024-03-07T06:35:57;21.40;;;13.83;;
15673;SDS011;7937;48.090;16.212;2024-03-07T06:39:00;18.83;;;13.33;;
15673;SDS011;7937;48.090;16.212;2024-03-07T06:42:02;19.77;;;12.20;;
15673;SDS011;7937;48.090;16.212;2024-03-07T06:45:05;19.37;;;13.13;;
15673;SDS011;7937;48.090;16.212;2024-03-07T06:48:08;19.43;;;12.90;;
15673;SDS011;7937;48.090;16.212;2024-03-07T06:51:11;17.80;;;12.20;;
15673;SDS011;7937;48.090;16.212;2024-03-07T06:54:14;18.53;;;12.43;;
15673;SDS011;7937;48.090;16.212;2024-03-07T06:57:16;17.70;;;12.57;;
15673;SDS011;7937;48.090;16.212;2024-03-07T07:00:20;16.93;;;12.00;;
15673;SDS011;7937;48.090;16.212;2024-03-07T07:03:22;16.30;;;11.97;;
15673;SDS011;7937;48.090;16.212;2024-03-07T07:06:25;16.07;;;11.47;;
15673;SDS011;7937;48.090;16.212;2024-03-07T07:09:28;16.20;;;11.83;;
15673;SDS011;7937;48.090;16.212;2024-03-07T07:12:30;14.63;;;11.23;;
15673;SDS011;7937;48.090;16.212;2024-03-07T07:15:32;15.13;;;10.63;;
15673;SDS011;7937;48.090;16.212;2024-03-07T07:18:34;14.93;;;10.63;;
15673;SDS011;7937;48.090;16.212;2024-03-07T07:21:37;12.00;;;9.23;;
15673;SDS011;7937;48.090;16.212;2024-03-07T07:24:41;12.20;;;8.70;;
15673;SDS011;7937;48.090;16.212;2024-03-07T07:27:44;11.93;;;8.67;;
15673;SDS011;7937;48.090;16.212;2024-03-07T07:30:47;11.77;;;8.70;;
15673;SDS011;7937;48.090;16.212;2024-03-07T07:33:50;13.70;;;9.63;;
15673;SDS011;7937;48.090;16.212;2024-03-07T07:36:52;12.60;;;9.77;;
15673;SDS011;7937;48.090;16.212;2024-03-07T07:39:55;11.80;;;9.03;;
15673;SDS011;7937;48.090;16.212;2024-03-07T07:42:57;13.33;;;10.10;;
15673;SDS011;7937;48.090;16.212;2024-03-07T07:45:59;12.40;;;9.17;;
15673;SDS011;7937;48.090;16.212;2024-03-07T07:49:02;13.53;;;9.40;;
15673;SDS011;7937;48.090;16.212;2024-03-07T07:52:05;14.47;;;10.13;;
15673;SDS011;7937;48.090;16.212;2024-03-07T07:55:09;13.73;;;10.40;;
15673;SDS011;7937;48.090;16.212;2024-03-07T07:58:17;12.90;;;10.00;;
15673;SDS011;7937;48.090;16.212;2024-03-07T08:01:19;12.37;;;9.43;;
15673;SDS011;7937;48.090;16.212;2024-03-07T08:04:22;14.37;;;10.43;;
15673;SDS011;7937;48.090;16.212;2024-03-07T08:07:24;14.83;;;10.80;;
15673;SDS011;7937;48.090;16.212;2024-03-07T08:10:27;14.10;;;10.07;;
15673;SDS011;7937;48.090;16.212;2024-03-07T08:13:33;13.83;;;10.10;;
15673;SDS011;7937;48.090;16.212;2024-03-07T08:16:35;14.70;;;10.60;;
15673;SDS011;7937;48.090;16.212;2024-03-07T08:19:40;17.87;;;10.50;;
15673;SDS011;7937;48.090;16.212;2024-03-07T08:22:44;12.60;;;9.93;;
15673;SDS011;7937;48.090;16.212;2024-03-07T08:25:46;11.77;;;9.20;;
15673;SDS011;7937;48.090;16.212;2024-03-07T08:28:48;15.10;;;9.77;;
15673;SDS011;7937;48.090;16.212;2024-03-07T08:31:50;14.63;;;9.80;;
15673;SDS011;7937;48.090;16.212;2024-03-07T08:34:53;13.43;;;9.23;;
15673;SDS011;7937;48.090;16.212;2024-03-07T08:38:00;15.40;;;9.23;;
15673;SDS011;7937;48.090;16.212;2024-03-07T08:41:02;13.30;;;8.93;;
15673;SDS011;7937;48.090;16.212;2024-03-07T08:44:04;12.37;;;9.40;;
15673;SDS011;7937;48.090;16.212;2024-03-07T08:47:06;12.13;;;8.53;;
15673;SDS011;7937;48.090;16.212;2024-03-07T08:50:09;13.50;;;8.73;;
15673;SDS011;7937;48.090;16.212;2024-03-07T08:53:11;11.47;;;8.97;;
15673;SDS011;7937;48.090;16.212;2024-03-07T08:56:14;11.73;;;8.60;;
15673;SDS011;7937;48.090;16.212;2024-03-07T08:59:16;11.87;;;8.30;;
15673;SDS011;7937;48.090;16.212;2024-03-07T09:02:19;11.93;;;8.70;;
15673;SDS011;7937;48.090;16.212;2024-03-07T09:05:22;9.30;;;7.37;;
15673;SDS011;7937;48.090;16.212;2024-03-07T09:08:25;10.60;;;7.43;;
15673;SDS011;7937;48.090;16.212;2024-03-07T09:11:31;10.63;;;7.67;;
15673;SDS011;7937;48.090;16.212;2024-03-07T09:14:34;9.60;;;7.17;;
15673;SDS011;7937;48.090;16.212;2024-03-07T09:17:37;10.63;;;7.13;;
15673;SDS011;7937;48.090;16.212;2024-03-07T09:20:40;8.37;;;6.90;;
15673;SDS011;7937;48.090;16.212;2024-03-07T09:23:43;11.07;;;7.37;;
15673;SDS011;7937;48.090;16.212;2024-03-07T09:26:45;12.07;;;7.27;;
15673;SDS011;7937;48.090;16.212;2024-03-07T09:29:48;9.93;;;7.43;;
15673;SDS011;7937;48.090;16.212;2024-03-07T09:32:50;11.73;;;8.30;;
15673;SDS011;7937;48.090;16.212;2024-03-07T09:35:53;9.93;;;7.93;;
15673;SDS011;7937;48.090;16.212;2024-03-07T09:38:55;12.03;;;7.97;;
15673;SDS011;7937;48.090;16.212;2024-03-07T09:41:58;11.00;;;7.77;;
15673;SDS011;7937;48.090;16.212;2024-03-07T09:45:01;10.63;;;7.83;;
15673;SDS011;7937;48.090;16.212;2024-03-07T09:48:05;12.17;;;8.67;;
15673;SDS011;7937;48.090;16.212;2024-03-07T09:51:11;12.10;;;8.07;;
15673;SDS011;7937;48.090;16.212;2024-03-07T09:54:18;11.90;;;8.73;;
15673;SDS011;7937;48.090;16.212;2024-03-07T09:57:20;13.97;;;9.00;;
15673;SDS011;7937;48.090;16.212;2024-03-07T10:00:25;13.70;;;8.50;;
15673;SDS011;7937;48.090;16.212;2024-03-07T10:03:30;12.23;;;8.57;;
15673;SDS011;7937;48.090;16.212;2024-03-07T10:06:39;13.90;;;8.43;;
15673;SDS011;7937;48.090;16.212;2024-03-07T10:09:47;12.77;;;8.70;;
15673;SDS011;7937;48.090;16.212;2024-03-07T10:12:49;11.97;;;8.50;;
15673;SDS011;7937;48.090;16.212;2024-03-07T10:15:58;11.90;;;8.07;;
15673;SDS011;7937;48.090;16.212;2024-03-07T10:19:05;11.70;;;8.00;;
15673;SDS011;7937;48.090;16.212;2024-03-07T10:22:07;13.17;;;8.23;;
15673;SDS011;7937;48.090;16.212;2024-03-07T10:25:09;11.53;;;7.47;;
15673;SDS011;7937;48.090;16.212;2024-03-07T10:28:12;10.23;;;7.90;;
15673;SDS011;7937;48.090;16.212;2024-03-07T10:31:27;11.23;;;8.20;;
15673;SDS011;7937;48.090;16.212;2024-03-07T10:34:33;11.97;;;8.87;;
15673;SDS011;7937;48.090;16.212;2024-03-07T10:37:36;12.37;;;8.37;;
15673;SDS011;7937;48.090;16.212;2024-03-07T10:40:38;14.30;;;8.50;;
15673;SDS011;7937;48.090;16.212;2024-03-07T10:43:43;11.27;;;8.23;;
15673;SDS011;7937;48.090;16.212;2024-03-07T10:46:53;13.03;;;8.57;;
15673;SDS011;7937;48.090;16.212;2024-03-07T10:50:04;14.20;;;9.03;;
15673;SDS011;7937;48.090;16.212;2024-03-07T10:53:29;13.60;;;9.50;;
15673;SDS011;7937;48.090;16.212;2024-03-07T10:59:56;15.07;;;10.43;;
15673;SDS011;7937;48.090;16.212;2024-03-07T11:03:02;15.87;;;10.43;;
15673;SDS011;7937;48.090;16.212;2024-03-07T11:06:11;14.07;;;9.97;;
15673;SDS011;7937;48.090;16.212;2024-03-07T11:09:15;14.13;;;10.23;;
15673;SDS011;7937;48.090;16.212;2024-03-07T11:12:24;14.77;;;10.80;;
15673;SDS011;7937;48.090;16.212;2024-03-07T11:15:30;14.80;;;10.67;;
15673;SDS011;7937;48.090;16.212;2024-03-07T11:18:35;15.07;;;9.97;;
15673;SDS011;7937;48.090;16.212;2024-03-07T11:21:40;14.63;;;10.60;;
15673;SDS011;7937;48.090;16.212;2024-03-07T11:24:43;14.47;;;10.30;;
15673;SDS011;7937;48.090;16.212;2024-03-07T11:27:50;15.70;;;9.63;;
15673;SDS011;7937;48.090;16.212;2024-03-07T11:31:12;12.17;;;8.77;;
15673;SDS011;7937;48.090;16.212;2024-03-07T11:34:16;14.37;;;11.27;;
15673;SDS011;7937;48.090;16.212;2024-03-07T11:37:37;16.37;;;10.10;;
15673;SDS011;7937;48.090;16.212;2024-03-07T11:40:46;12.33;;;9.20;;
15673;SDS011;7937;48.090;16.212;2024-03-07T11:43:52;12.67;;;9.50;;
15673;SDS011;7937;48.090;16.212;2024-03-07T11:46:56;17.70;;;10.80;;
15673;SDS011;7937;48.090;16.212;2024-03-07T11:50:01;13.60;;;9.70;;
15673;SDS011;7937;48.090;16.212;2024-03-07T11:53:10;16.27;;;10.93;;
15673;SDS011;7937;48.090;16.212;2024-03-07T11:56:12;15.10;;;10.13;;
15673;SDS011;7937;48.090;16.212;2024-03-07T11:59:18;16.17;;;10.93;;
15673;SDS011;7937;48.090;16.212;2024-03-07T12:02:21;16.60;;;11.47;;
15673;SDS011;7937;48.090;16.212;2024-03-07T12:05:24;14.90;;;10.83;;
15673;SDS011;7937;48.090;16.212;2024-03-07T12:08:29;16.40;;;10.97;;
15673;SDS011;7937;48.090;16.212;2024-03-07T12:11:31;16.33;;;11.90;;
15673;SDS011;7937;48.090;16.212;2024-03-07T12:14:33;17.97;;;12.03;;
15673;SDS011;7937;48.090;16.212;2024-03-07T12:17:36;19.60;;;12.27;;
15673;SDS011;7937;48.090;16.212;2024-03-07T12:20:39;17.60;;;12.63;;
15673;SDS011;7937;48.090;16.212;2024-03-07T12:23:42;16.83;;;11.70;;
15673;SDS011;7937;48.090;16.212;2024-03-07T12:26:44;20.17;;;11.93;;
15673;SDS011;7937;48.090;16.212;2024-03-07T12:29:47;16.80;;;11.87;;
15673;SDS011;7937;48.090;16.212;2024-03-07T12:32:51;17.73;;;11.60;;
15673;SDS011;7937;48.090;16.212;2024-03-07T12:35:54;17.40;;;12.97;;
15673;SDS011;7937;48.090;16.212;2024-03-07T12:39:02;17.57;;;11.93;;
15673;SDS011;7937;48.090;16.212;2024-03-07T12:42:11;20.50;;;13.63;;
15673;SDS011;7937;48.090;16.212;2024-03-07T12:45:16;20.40;;;13.40;;
15673;SDS011;7937;48.090;16.212;2024-03-07T12:48:22;20.63;;;14.70;;
15673;SDS011;7937;48.090;16.212;2024-03-07T12:51:25;22.60;;;14.97;;
15673;SDS011;7937;48.090;16.212;2024-03-07T12:54:27;22.60;;;14.60;;
15673;SDS011;7937;48.090;16.212;2024-03-07T12:57:29;21.50;;;14.70;;
15673;SDS011;7937;48.090;16.212;2024-03-07T13:00:31;23.00;;;15.33;;
15673;SDS011;7937;48.090;16.212;2024-03-07T13:03:33;24.07;;;16.53;;
15673;SDS011;7937;48.090;16.212;2024-03-07T13:06:37;22.90;;;15.43;;
15673;SDS011;7937;48.090;16.212;2024-03-07T13:09:39;25.07;;;16.50;;
15673;SDS011;7937;48.090;16.212;2024-03-07T13:12:42;25.90;;;16.77;;
15673;SDS011;7937;48.090;16.212;2024-03-07T13:15:47;24.37;;;16.53;;
15673;SDS011;7937;48.090;16.212;2024-03-07T13:18:49;25.87;;;16.73;;
15673;SDS011;7937;48.090;16.212;2024-03-07T13:21:52;25.13;;;17.23;;
15673;SDS011;7937;48.090;16.212;2024-03-07T13:24:55;25.60;;;17.33;;
15673;SDS011;7937;48.090;16.212;2024-03-07T13:28:04;24.20;;;17.33;;
15673;SDS011;7937;48.090;16.212;2024-03-07T13:31:15;30.57;;;18.80;;
15673;SDS011;7937;48.090;16.212;2024-03-07T13:34:19;31.40;;;19.60;;
15673;SDS011;7937;48.090;16.212;2024-03-07T13:37:21;28.70;;;18.70;;
15673;SDS011;7937;48.090;16.212;2024-03-07T13:40:24;28.00;;;17.93;;
15673;SDS011;7937;48.090;16.212;2024-03-07T13:43:27;27.63;;;18.17;;
15673;SDS011;7937;48.090;16.212;2024-03-07T13:46:29;28.97;;;19.43;;
15673;SDS011;7937;48.090;16.212;2024-03-07T13:49:32;28.97;;;18.83;;
15673;SDS011;7937;48.090;16.212;2024-03-07T13:52:35;29.50;;;19.70;;
15673;SDS011;7937;48.090;16.212;2024-03-07T14:02:09;28.47;;;18.60;;
15673;SDS011;7937;48.090;16.212;2024-03-07T14:22:34;24.67;;;17.60;;
15673;SDS011;7937;48.090;16.212;2024-03-07T14:29:52;25.43;;;15.97;;
15673;SDS011;7937;48.090;16.212;2024-03-07T14:33:00;22.90;;;16.40;;
15673;SDS011;7937;48.090;16.212;2024-03-07T14:36:05;24.50;;;17.10;;
15673;SDS011;7937;48.090;16.212;2024-03-07T14:39:12;24.53;;;17.00;;
15673;SDS011;7937;48.090;16.212;2024-03-07T14:42:24;25.00;;;17.00;;
15673;SDS011;7937;48.090;16.212;2024-03-07T14:45:27;21.47;;;15.97;;
15673;SDS011;7937;48.090;16.212;2024-03-07T14:48:35;22.90;;;15.37;;
15673;SDS011;7937;48.090;16.212;2024-03-07T14:51:37;23.20;;;15.80;;
15673;SDS011;7937;48.090;16.212;2024-03-07T14:54:55;22.57;;;15.50;;
15673;SDS011;7937;48.090;16.212;2024-03-07T14:57:58;21.67;;;15.53;;
15673;SDS011;7937;48.090;16.212;2024-03-07T15:01:00;23.40;;;15.27;;
15673;SDS011;7937;48.090;16.212;2024-03-07T15:04:02;21.60;;;16.13;;
15673;SDS011;7937;48.090;16.212;2024-03-07T15:07:08;23.83;;;16.33;;
15673;SDS011;7937;48.090;16.212;2024-03-07T15:10:17;23.23;;;15.97;;
15673;SDS011;7937;48.090;16.212;2024-03-07T15:13:25;24.30;;;15.63;;
15673;SDS011;7937;48.090;16.212;2024-03-07T15:16:27;23.17;;;15.90;;
15673;SDS011;7937;48.090;16.212;2024-03-07T15:19:37;22.87;;;16.10;;
15673;SDS011;7937;48.090;16.212;2024-03-07T15:22:41;23.57;;;15.83;;
15673;SDS011;7937;48.090;16.212;2024-03-07T15:25:48;25.73;;;16.43;;
15673;SDS011;7937;48.090;16.212;2024-03-07T15:28:50;21.83;;;14.93;;
15673;SDS011;7937;48.090;16.212;2024-03-07T15:31:53;21.73;;;15.63;;
15673;SDS011;7937;48.090;16.212;2024-03-07T15:34:55;21.47;;;15.63;;
15673;SDS011;7937;48.090;16.212;2024-03-07T15:37:58;22.90;;;15.57;;
15673;SDS011;7937;48.090;16.212;2024-03-07T15:41:01;21.97;;;15.37;;
15673;SDS011;7937;48.090;16.212;2024-03-07T15:44:03;24.67;;;16.20;;
15673;SDS011;7937;48.090;16.212;2024-03-07T15:47:09;23.90;;;16.47;;
15673;SDS011;7937;48.090;16.212;2024-03-07T15:50:11;25.03;;;16.27;;
15673;SDS011;7937;48.090;16.212;2024-03-07T15:53:14;20.80;;;14.87;;
15673;SDS011;7937;48.090;16.212;2024-03-07T15:56:16;24.33;;;16.33;;
15673;SDS011;7937;48.090;16.212;2024-03-07T15:59:19;21.50;;;15.20;;
15673;SDS011;7937;48.090;16.212;2024-03-07T16:02:23;22.17;;;15.93;;
15673;SDS011;7937;48.090;16.212;2024-03-07T16:05:26;21.93;;;15.70;;
15673;SDS011;7937;48.090;16.212;2024-03-07T16:08:30;23.63;;;15.67;;
15673;SDS011;7937;48.090;16.212;2024-03-07T16:11:32;23.47;;;17.03;;
15673;SDS011;7937;48.090;16.212;2024-03-07T16:14:34;21.90;;;15.07;;
15673;SDS011;7937;48.090;16.212;2024-03-07T16:17:37;28.63;;;17.77;;
15673;SDS011;7937;48.090;16.212;2024-03-07T16:20:40;23.83;;;16.67;;
15673;SDS011;7937;48.090;16.212;2024-03-07T16:23:43;24.10;;;17.47;;
15673;SDS011;7937;48.090;16.212;2024-03-07T16:26:45;24.23;;;18.30;;
15673;SDS011;7937;48.090;16.212;2024-03-07T16:29:47;25.57;;;17.87;;
15673;SDS011;7937;48.090;16.212;2024-03-07T16:32:51;26.43;;;18.53;;
15673;SDS011;7937;48.090;16.212;2024-03-07T16:36:00;28.30;;;18.70;;
15673;SDS011;7937;48.090;16.212;2024-03-07T16:39:02;27.37;;;19.03;;
15673;SDS011;7937;48.090;16.212;2024-03-07T16:42:10;28.73;;;20.13;;
15673;SDS011;7937;48.090;16.212;2024-03-07T16:45:12;28.13;;;18.90;;
15673;SDS011;7937;48.090;16.212;2024-03-07T16:48:15;32.73;;;21.57;;
15673;SDS011;7937;48.090;16.212;2024-03-07T16:51:17;31.20;;;21.10;;
15673;SDS011;7937;48.090;16.212;2024-03-07T16:54:20;33.20;;;21.57;;
15673;SDS011;7937;48.090;16.212;2024-03-07T16:57:23;33.03;;;21.73;;
15673;SDS011;7937;48.090;16.212;2024-03-07T17:00:26;30.57;;;21.43;;
15673;SDS011;7937;48.090;16.212;2024-03-07T17:03:31;34.17;;;22.40;;
15673;SDS011;7937;48.090;16.212;2024-03-07T17:06:33;34.53;;;22.93;;
15673;SDS011;7937;48.090;16.212;2024-03-07T17:09:37;37.07;;;23.13;;
15673;SDS011;7937;48.090;16.212;2024-03-07T17:12:43;39.10;;;24.20;;
15673;SDS011;7937;48.090;16.212;2024-03-07T17:15:47;38.17;;;24.47;;
15673;SDS011;7937;48.090;16.212;2024-03-07T17:18:49;40.70;;;24.93;;
15673;SDS011;7937;48.090;16.212;2024-03-07T17:21:51;39.63;;;25.57;;
15673;SDS011;7937;48.090;16.212;2024-03-07T17:24:53;38.57;;;25.30;;
15673;SDS011;7937;48.090;16.212;2024-03-07T17:27:55;37.87;;;25.00;;
15673;SDS011;7937;48.090;16.212;2024-03-07T17:30:59;41.27;;;24.33;;
15673;SDS011;7937;48.090;16.212;2024-03-07T17:34:01;42.43;;;26.40;;
15673;SDS011;7937;48.090;16.212;2024-03-07T17:37:03;40.27;;;24.90;;
15673;SDS011;7937;48.090;16.212;2024-03-07T17:40:06;40.10;;;25.47;;
15673;SDS011;7937;48.090;16.212;2024-03-07T17:43:18;38.70;;;26.00;;
15673;SDS011;7937;48.090;16.212;2024-03-07T17:46:21;37.93;;;26.27;;
15673;SDS011;7937;48.090;16.212;2024-03-07T17:49:27;40.87;;;26.20;;
15673;SDS011;7937;48.090;16.212;2024-03-07T17:52:30;43.70;;;27.20;;
15673;SDS011;7937;48.090;16.212;2024-03-07T17:55:32;41.37;;;25.40;;
15673;SDS011;7937;48.090;16.212;2024-03-07T17:58:35;40.67;;;25.90;;
15673;SDS011;7937;48.090;16.212;2024-03-07T18:01:37;42.67;;;27.20;;
15673;SDS011;7937;48.090;16.212;2024-03-07T18:11:34;41.77;;;24.43;;
15673;SDS011;7937;48.090;16.212;2024-03-07T18:14:36;43.20;;;26.50;;
15673;SDS011;7937;48.090;16.212;2024-03-07T18:17:39;41.60;;;28.03;;
15673;SDS011;7937;48.090;16.212;2024-03-07T18:20:41;37.63;;;26.40;;
15673;SDS011;7937;48.090;16.212;2024-03-07T18:23:47;43.27;;;28.37;;
15673;SDS011;7937;48.090;16.212;2024-03-07T18:26:51;46.83;;;28.80;;
15673;SDS011;7937;48.090;16.212;2024-03-07T18:29:53;43.10;;;27.53;;
15673;SDS011;7937;48.090;16.212;2024-03-07T18:32:55;41.73;;;26.40;;
15673;SDS011;7937;48.090;16.212;2024-03-07T18:36:01;43.20;;;28.50;;